Terminal Aerodrome Forecast
Issued by NWS Wilmington, OH

Current Version | Previous Version | Text Only | Print | Product List | Glossary Off
Versions: 1 2 3 4 5 6 7 8 9 10 11 12 13 14 15 16 17

204
FTUS41 KILN 172057 AAA
TAFCMH
TAF AMD
KCMH 172057Z 1721/1818 20007KT P6SM SCT017 SCT100
     FM172200 24007KT P6SM SCT015 BKN120
     FM180200 22006KT P6SM SCT150
     FM180900 22008KT P6SM SKC
     FM181400 23012KT P6SM SKC=

USA.gov is the U.S. government's official web portal to all federal, state and local government web resources and services.